sensor_id;sensor_type;location;lat;lon;timestamp;P1;durP1;ratioP1;P2;durP2;ratioP2
72785;SDS011;60902;53.876;10.674;2022-09-06T00:00:05;3.42;;;0.90;;
72785;SDS011;60902;53.876;10.674;2022-09-06T00:00:20;2.80;;;0.90;;
72785;SDS011;60902;53.876;10.674;2022-09-06T00:00:42;3.05;;;1.05;;
72785;SDS011;60902;53.876;10.674;2022-09-06T00:00:54;3.20;;;0.82;;
72785;SDS011;60902;53.876;10.674;2022-09-06T00:01:08;2.72;;;0.82;;
72785;SDS011;60902;53.876;10.674;2022-09-06T00:01:22;3.00;;;1.05;;
72785;SDS011;60902;53.876;10.674;2022-09-06T00:01:33;3.22;;;1.13;;
72785;SDS011;60902;53.876;10.674;2022-09-06T00:01:44;3.35;;;1.20;;
72785;SDS011;60902;53.876;10.674;2022-09-06T00:01:58;3.25;;;1.35;;
72785;SDS011;60902;53.876;10.674;2022-09-06T00:02:13;2.67;;;1.15;;
72785;SDS011;60902;53.876;10.674;2022-09-06T00:02:29;2.45;;;1.10;;
72785;SDS011;60902;53.876;10.674;2022-09-06T00:02:41;3.08;;;1.20;;
72785;SDS011;60902;53.876;10.674;2022-09-06T00:02:56;3.08;;;1.00;;
72785;SDS011;60902;53.876;10.674;2022-09-06T00:03:07;3.10;;;0.98;;
72785;SDS011;60902;53.876;10.674;2022-09-06T00:03:18;3.38;;;1.10;;
72785;SDS011;60902;53.876;10.674;2022-09-06T00:03:29;3.13;;;1.00;;
72785;SDS011;60902;53.876;10.674;2022-09-06T00:03:40;3.20;;;1.33;;
72785;SDS011;60902;53.876;10.674;2022-09-06T00:03:52;2.67;;;1.20;;
72785;SDS011;60902;53.876;10.674;2022-09-06T00:04:04;3.22;;;1.25;;
72785;SDS011;60902;53.876;10.674;2022-09-06T00:04:16;3.50;;;1.10;;
72785;SDS011;60902;53.876;10.674;2022-09-06T00:04:27;3.50;;;1.10;;
72785;SDS011;60902;53.876;10.674;2022-09-06T00:04:40;2.85;;;1.00;;
72785;SDS011;60902;53.876;10.674;2022-09-06T00:04:51;2.80;;;1.00;;
72785;SDS011;60902;53.876;10.674;2022-09-06T00:05:04;3.42;;;0.95;;
72785;SDS011;60902;53.876;10.674;2022-09-06T00:05:15;3.65;;;1.08;;
72785;SDS011;60902;53.876;10.674;2022-09-06T00:05:26;3.38;;;1.10;;
72785;SDS011;60902;53.876;10.674;2022-09-06T00:05:38;3.05;;;1.10;;
72785;SDS011;60902;53.876;10.674;2022-09-06T00:05:52;3.28;;;1.17;;
72785;SDS011;60902;53.876;10.674;2022-09-06T00:06:07;4.35;;;1.30;;
72785;SDS011;60902;53.876;10.674;2022-09-06T00:06:19;4.20;;;1.20;;
72785;SDS011;60902;53.876;10.674;2022-09-06T00:06:30;3.28;;;0.95;;
72785;SDS011;60902;53.876;10.674;2022-09-06T00:06:41;2.42;;;0.85;;
72785;SDS011;60902;53.876;10.674;2022-09-06T00:06:52;2.20;;;0.77;;
72785;SDS011;60902;53.876;10.674;2022-09-06T00:07:03;2.23;;;0.70;;
72785;SDS011;60902;53.876;10.674;2022-09-06T00:07:17;2.33;;;0.90;;
72785;SDS011;60902;53.876;10.674;2022-09-06T00:07:31;2.70;;;0.98;;
72785;SDS011;60902;53.876;10.674;2022-09-06T00:07:45;2.47;;;0.80;;
72785;SDS011;60902;53.876;10.674;2022-09-06T00:07:56;2.63;;;1.00;;
72785;SDS011;60902;53.876;10.674;2022-09-06T00:08:08;3.08;;;1.17;;
72785;SDS011;60902;53.876;10.674;2022-09-06T00:08:19;3.28;;;1.13;;
72785;SDS011;60902;53.876;10.674;2022-09-06T00:08:30;3.35;;;0.90;;
72785;SDS011;60902;53.876;10.674;2022-09-06T00:08:42;3.08;;;0.82;;
72785;SDS011;60902;53.876;10.674;2022-09-06T00:08:59;2.78;;;0.90;;
72785;SDS011;60902;53.876;10.674;2022-09-06T00:09:11;3.38;;;1.00;;
72785;SDS011;60902;53.876;10.674;2022-09-06T00:09:22;3.50;;;1.10;;
72785;SDS011;60902;53.876;10.674;2022-09-06T00:09:33;3.15;;;1.10;;
72785;SDS011;60902;53.876;10.674;2022-09-06T00:09:46;2.90;;;1.00;;
72785;SDS011;60902;53.876;10.674;2022-09-06T00:09:57;2.80;;;0.90;;
72785;SDS011;60902;53.876;10.674;2022-09-06T00:10:08;3.00;;;1.00;;
72785;SDS011;60902;53.876;10.674;2022-09-06T00:10:20;2.60;;;0.90;;
72785;SDS011;60902;53.876;10.674;2022-09-06T00:10:32;2.95;;;0.90;;
72785;SDS011;60902;53.876;10.674;2022-09-06T00:10:43;3.28;;;1.10;;
72785;SDS011;60902;53.876;10.674;2022-09-06T00:10:55;3.17;;;1.00;;
72785;SDS011;60902;53.876;10.674;2022-09-06T00:11:07;2.78;;;0.82;;
72785;SDS011;60902;53.876;10.674;2022-09-06T00:11:18;2.13;;;0.73;;
72785;SDS011;60902;53.876;10.674;2022-09-06T00:11:29;2.67;;;0.90;;
72785;SDS011;60902;53.876;10.674;2022-09-06T00:11:40;2.90;;;0.95;;
72785;SDS011;60902;53.876;10.674;2022-09-06T00:11:52;3.17;;;1.25;;
72785;SDS011;60902;53.876;10.674;2022-09-06T00:12:04;2.75;;;1.30;;
72785;SDS011;60902;53.876;10.674;2022-09-06T00:12:15;2.42;;;1.13;;
72785;SDS011;60902;53.876;10.674;2022-09-06T00:12:26;2.22;;;0.80;;
72785;SDS011;60902;53.876;10.674;2022-09-06T00:12:37;2.45;;;0.73;;
72785;SDS011;60902;53.876;10.674;2022-09-06T00:12:48;2.70;;;0.80;;
72785;SDS011;60902;53.876;10.674;2022-09-06T00:13:00;2.53;;;0.73;;
72785;SDS011;60902;53.876;10.674;2022-09-06T00:13:12;2.58;;;1.00;;
72785;SDS011;60902;53.876;10.674;2022-09-06T00:13:24;2.75;;;1.10;;
72785;SDS011;60902;53.876;10.674;2022-09-06T00:13:35;2.83;;;1.05;;
72785;SDS011;60902;53.876;10.674;2022-09-06T00:13:47;2.63;;;0.93;;
72785;SDS011;60902;53.876;10.674;2022-09-06T00:13:58;2.83;;;1.00;;
72785;SDS011;60902;53.876;10.674;2022-09-06T00:14:09;3.35;;;1.30;;
72785;SDS011;60902;53.876;10.674;2022-09-06T00:14:20;3.15;;;1.20;;
72785;SDS011;60902;53.876;10.674;2022-09-06T00:14:31;3.05;;;1.20;;
72785;SDS011;60902;53.876;10.674;2022-09-06T00:14:45;2.83;;;1.00;;
72785;SDS011;60902;53.876;10.674;2022-09-06T00:14:56;2.88;;;1.00;;
72785;SDS011;60902;53.876;10.674;2022-09-06T00:15:08;2.80;;;0.90;;
72785;SDS011;60902;53.876;10.674;2022-09-06T00:15:19;2.60;;;0.80;;
72785;SDS011;60902;53.876;10.674;2022-09-06T00:15:31;2.42;;;0.82;;
72785;SDS011;60902;53.876;10.674;2022-09-06T00:15:43;2.67;;;0.90;;
72785;SDS011;60902;53.876;10.674;2022-09-06T00:15:55;2.60;;;0.90;;
72785;SDS011;60902;53.876;10.674;2022-09-06T00:16:13;2.38;;;0.80;;
72785;SDS011;60902;53.876;10.674;2022-09-06T00:16:25;2.45;;;0.80;;
72785;SDS011;60902;53.876;10.674;2022-09-06T00:16:36;3.05;;;1.00;;
72785;SDS011;60902;53.876;10.674;2022-09-06T00:16:49;3.17;;;1.13;;
72785;SDS011;60902;53.876;10.674;2022-09-06T00:17:00;3.03;;;1.20;;
72785;SDS011;60902;53.876;10.674;2022-09-06T00:17:13;2.80;;;1.10;;
72785;SDS011;60902;53.876;10.674;2022-09-06T00:17:25;2.65;;;0.93;;
72785;SDS011;60902;53.876;10.674;2022-09-06T00:17:36;2.75;;;0.90;;
72785;SDS011;60902;53.876;10.674;2022-09-06T00:17:47;2.90;;;1.00;;
72785;SDS011;60902;53.876;10.674;2022-09-06T00:17:58;3.22;;;1.00;;
72785;SDS011;60902;53.876;10.674;2022-09-06T00:18:09;3.20;;;0.90;;
72785;SDS011;60902;53.876;10.674;2022-09-06T00:18:21;3.10;;;0.93;;
72785;SDS011;60902;53.876;10.674;2022-09-06T00:18:32;3.33;;;1.00;;
72785;SDS011;60902;53.876;10.674;2022-09-06T00:18:43;3.38;;;1.10;;
72785;SDS011;60902;53.876;10.674;2022-09-06T00:18:56;3.00;;;0.93;;
72785;SDS011;60902;53.876;10.674;2022-09-06T00:19:07;2.85;;;0.88;;
72785;SDS011;60902;53.876;10.674;2022-09-06T00:19:18;2.72;;;0.80;;
72785;SDS011;60902;53.876;10.674;2022-09-06T00:19:29;2.70;;;0.90;;
72785;SDS011;60902;53.876;10.674;2022-09-06T00:19:40;2.53;;;0.90;;
72785;SDS011;60902;53.876;10.674;2022-09-06T00:19:51;3.10;;;1.00;;
72785;SDS011;60902;53.876;10.674;2022-09-06T00:20:02;3.33;;;1.10;;
72785;SDS011;60902;53.876;10.674;2022-09-06T00:20:15;2.80;;;0.90;;
72785;SDS011;60902;53.876;10.674;2022-09-06T00:20:27;2.63;;;0.82;;
72785;SDS011;60902;53.876;10.674;2022-09-06T00:20:39;2.92;;;0.93;;
72785;SDS011;60902;53.876;10.674;2022-09-06T00:20:50;3.15;;;1.02;;
72785;SDS011;60902;53.876;10.674;2022-09-06T00:21:01;3.10;;;1.00;;
72785;SDS011;60902;53.876;10.674;2022-09-06T00:21:13;3.20;;;1.02;;
72785;SDS011;60902;53.876;10.674;2022-09-06T00:21:26;3.05;;;1.08;;
72785;SDS011;60902;53.876;10.674;2022-09-06T00:21:39;2.65;;;1.08;;
72785;SDS011;60902;53.876;10.674;2022-09-06T00:21:50;2.50;;;0.90;;
72785;SDS011;60902;53.876;10.674;2022-09-06T00:22:01;3.08;;;0.90;;
72785;SDS011;60902;53.876;10.674;2022-09-06T00:22:13;3.13;;;0.88;;
72785;SDS011;60902;53.876;10.674;2022-09-06T00:22:24;3.03;;;0.90;;
72785;SDS011;60902;53.876;10.674;2022-09-06T00:22:35;2.60;;;0.90;;
72785;SDS011;60902;53.876;10.674;2022-09-06T00:22:46;2.35;;;0.80;;
72785;SDS011;60902;53.876;10.674;2022-09-06T00:22:57;2.30;;;0.80;;
72785;SDS011;60902;53.876;10.674;2022-09-06T00:23:09;2.28;;;0.80;;
72785;SDS011;60902;53.876;10.674;2022-09-06T00:23:21;2.58;;;0.80;;
72785;SDS011;60902;53.876;10.674;2022-09-06T00:23:32;2.67;;;0.90;;
72785;SDS011;60902;53.876;10.674;2022-09-06T00:23:43;2.83;;;1.10;;
72785;SDS011;60902;53.876;10.674;2022-09-06T00:23:55;2.90;;;1.20;;
72785;SDS011;60902;53.876;10.674;2022-09-06T00:24:06;3.08;;;1.13;;
72785;SDS011;60902;53.876;10.674;2022-09-06T00:24:17;2.85;;;0.88;;
72785;SDS011;60902;53.876;10.674;2022-09-06T00:24:28;3.05;;;0.85;;
72785;SDS011;60902;53.876;10.674;2022-09-06T00:24:39;2.95;;;0.80;;
72785;SDS011;60902;53.876;10.674;2022-09-06T00:24:51;2.85;;;1.00;;
72785;SDS011;60902;53.876;10.674;2022-09-06T00:25:02;2.67;;;1.00;;
72785;SDS011;60902;53.876;10.674;2022-09-06T00:25:14;2.30;;;0.90;;
72785;SDS011;60902;53.876;10.674;2022-09-06T00:25:26;2.10;;;0.77;;
72785;SDS011;60902;53.876;10.674;2022-09-06T00:25:37;2.35;;;0.85;;
72785;SDS011;60902;53.876;10.674;2022-09-06T00:25:50;2.75;;;1.08;;
72785;SDS011;60902;53.876;10.674;2022-09-06T00:26:01;2.80;;;1.10;;
72785;SDS011;60902;53.876;10.674;2022-09-06T00:26:14;2.80;;;1.10;;
72785;SDS011;60902;53.876;10.674;2022-09-06T00:26:25;3.00;;;1.10;;
72785;SDS011;60902;53.876;10.674;2022-09-06T00:26:37;2.90;;;1.05;;
72785;SDS011;60902;53.876;10.674;2022-09-06T00:26:48;3.13;;;1.00;;
72785;SDS011;60902;53.876;10.674;2022-09-06T00:26:58;3.05;;;0.90;;
72785;SDS011;60902;53.876;10.674;2022-09-06T00:27:09;2.78;;;0.90;;
72785;SDS011;60902;53.876;10.674;2022-09-06T00:27:20;2.50;;;0.82;;
72785;SDS011;60902;53.876;10.674;2022-09-06T00:27:31;2.50;;;0.80;;
72785;SDS011;60902;53.876;10.674;2022-09-06T00:27:43;2.75;;;0.75;;
72785;SDS011;60902;53.876;10.674;2022-09-06T00:27:55;2.72;;;0.80;;
72785;SDS011;60902;53.876;10.674;2022-09-06T00:28:06;3.60;;;0.93;;
72785;SDS011;60902;53.876;10.674;2022-09-06T00:28:17;3.50;;;0.93;;
72785;SDS011;60902;53.876;10.674;2022-09-06T00:28:28;3.55;;;0.93;;
72785;SDS011;60902;53.876;10.674;2022-09-06T00:28:40;3.30;;;0.93;;
72785;SDS011;60902;53.876;10.674;2022-09-06T00:28:51;3.30;;;1.00;;
72785;SDS011;60902;53.876;10.674;2022-09-06T00:29:03;3.13;;;1.00;;
72785;SDS011;60902;53.876;10.674;2022-09-06T00:29:14;2.42;;;0.90;;
72785;SDS011;60902;53.876;10.674;2022-09-06T00:29:24;2.95;;;0.90;;
72785;SDS011;60902;53.876;10.674;2022-09-06T00:29:35;3.17;;;1.00;;
72785;SDS011;60902;53.876;10.674;2022-09-06T00:29:46;3.45;;;1.00;;
72785;SDS011;60902;53.876;10.674;2022-09-06T00:29:57;3.03;;;1.00;;
72785;SDS011;60902;53.876;10.674;2022-09-06T00:30:09;2.80;;;0.85;;
72785;SDS011;60902;53.876;10.674;2022-09-06T00:30:20;2.67;;;0.90;;
72785;SDS011;60902;53.876;10.674;2022-09-06T00:30:31;2.72;;;0.90;;
72785;SDS011;60902;53.876;10.674;2022-09-06T00:30:44;2.90;;;0.90;;
72785;SDS011;60902;53.876;10.674;2022-09-06T00:30:55;2.85;;;0.95;;
72785;SDS011;60902;53.876;10.674;2022-09-06T00:31:07;2.63;;;0.90;;
72785;SDS011;60902;53.876;10.674;2022-09-06T00:31:21;2.65;;;0.90;;
72785;SDS011;60902;53.876;10.674;2022-09-06T00:31:33;2.55;;;0.73;;
72785;SDS011;60902;53.876;10.674;2022-09-06T00:31:45;2.70;;;0.70;;
72785;SDS011;60902;53.876;10.674;2022-09-06T00:31:56;2.85;;;0.80;;
72785;SDS011;60902;53.876;10.674;2022-09-06T00:32:07;2.67;;;0.90;;
72785;SDS011;60902;53.876;10.674;2022-09-06T00:32:20;2.78;;;0.88;;
72785;SDS011;60902;53.876;10.674;2022-09-06T00:32:31;2.55;;;0.80;;
72785;SDS011;60902;53.876;10.674;2022-09-06T00:32:42;3.22;;;0.85;;
72785;SDS011;60902;53.876;10.674;2022-09-06T00:32:53;3.47;;;0.93;;
72785;SDS011;60902;53.876;10.674;2022-09-06T00:33:04;3.50;;;1.10;;
72785;SDS011;60902;53.876;10.674;2022-09-06T00:33:16;2.92;;;1.00;;
72785;SDS011;60902;53.876;10.674;2022-09-06T00:33:27;3.10;;;0.90;;
72785;SDS011;60902;53.876;10.674;2022-09-06T00:33:38;3.10;;;0.90;;
72785;SDS011;60902;53.876;10.674;2022-09-06T00:33:49;2.63;;;0.80;;
72785;SDS011;60902;53.876;10.674;2022-09-06T00:34:00;2.58;;;0.85;;
72785;SDS011;60902;53.876;10.674;2022-09-06T00:34:11;2.70;;;0.90;;
72785;SDS011;60902;53.876;10.674;2022-09-06T00:34:22;2.38;;;0.80;;
72785;SDS011;60902;53.876;10.674;2022-09-06T00:34:33;2.53;;;0.85;;
72785;SDS011;60902;53.876;10.674;2022-09-06T00:34:44;2.50;;;0.77;;
72785;SDS011;60902;53.876;10.674;2022-09-06T00:34:56;3.50;;;1.10;;
72785;SDS011;60902;53.876;10.674;2022-09-06T00:35:07;3.33;;;1.30;;
72785;SDS011;60902;53.876;10.674;2022-09-06T00:35:18;2.95;;;1.20;;
72785;SDS011;60902;53.876;10.674;2022-09-06T00:35:29;2.47;;;0.85;;
72785;SDS011;60902;53.876;10.674;2022-09-06T00:35:41;2.50;;;0.70;;
72785;SDS011;60902;53.876;10.674;2022-09-06T00:35:57;2.80;;;0.80;;
72785;SDS011;60902;53.876;10.674;2022-09-06T00:36:09;3.13;;;0.90;;
72785;SDS011;60902;53.876;10.674;2022-09-06T00:36:22;3.05;;;0.90;;
72785;SDS011;60902;53.876;10.674;2022-09-06T00:36:33;2.63;;;0.90;;
72785;SDS011;60902;53.876;10.674;2022-09-06T00:36:44;2.65;;;0.90;;
72785;SDS011;60902;53.876;10.674;2022-09-06T00:36:55;2.85;;;0.90;;
72785;SDS011;60902;53.876;10.674;2022-09-06T00:37:06;2.63;;;0.85;;
72785;SDS011;60902;53.876;10.674;2022-09-06T00:37:17;2.35;;;0.82;;
72785;SDS011;60902;53.876;10.674;2022-09-06T00:37:28;2.15;;;0.80;;
72785;SDS011;60902;53.876;10.674;2022-09-06T00:37:39;2.63;;;0.90;;
72785;SDS011;60902;53.876;10.674;2022-09-06T00:37:55;2.67;;;0.90;;
72785;SDS011;60902;53.876;10.674;2022-09-06T00:38:08;2.65;;;0.98;;
72785;SDS011;60902;53.876;10.674;2022-09-06T00:38:19;2.78;;;1.10;;
72785;SDS011;60902;53.876;10.674;2022-09-06T00:38:30;2.60;;;1.00;;
72785;SDS011;60902;53.876;10.674;2022-09-06T00:38:41;2.70;;;0.93;;
72785;SDS011;60902;53.876;10.674;2022-09-06T00:38:52;2.70;;;0.85;;
72785;SDS011;60902;53.876;10.674;2022-09-06T00:39:03;3.10;;;1.10;;
72785;SDS011;60902;53.876;10.674;2022-09-06T00:39:14;2.95;;;1.10;;
72785;SDS011;60902;53.876;10.674;2022-09-06T00:39:25;3.17;;;1.10;;
72785;SDS011;60902;53.876;10.674;2022-09-06T00:39:37;3.30;;;1.08;;
72785;SDS011;60902;53.876;10.674;2022-09-06T00:39:48;3.17;;;1.08;;
72785;SDS011;60902;53.876;10.674;2022-09-06T00:39:59;2.83;;;1.10;;
72785;SDS011;60902;53.876;10.674;2022-09-06T00:40:10;2.72;;;0.90;;
72785;SDS011;60902;53.876;10.674;2022-09-06T00:40:22;2.38;;;0.80;;
72785;SDS011;60902;53.876;10.674;2022-09-06T00:40:33;2.38;;;0.90;;
72785;SDS011;60902;53.876;10.674;2022-09-06T00:40:44;2.35;;;0.95;;
72785;SDS011;60902;53.876;10.674;2022-09-06T00:40:56;2.53;;;0.82;;
72785;SDS011;60902;53.876;10.674;2022-09-06T00:41:08;3.07;;;0.90;;
72785;SDS011;60902;53.876;10.674;2022-09-06T00:41:21;3.13;;;0.93;;
72785;SDS011;60902;53.876;10.674;2022-09-06T00:41:32;2.85;;;1.20;;
72785;SDS011;60902;53.876;10.674;2022-09-06T00:41:43;2.70;;;1.10;;
72785;SDS011;60902;53.876;10.674;2022-09-06T00:41:53;2.80;;;0.93;;
72785;SDS011;60902;53.876;10.674;2022-09-06T00:42:06;3.17;;;0.90;;
72785;SDS011;60902;53.876;10.674;2022-09-06T00:42:19;3.33;;;0.95;;
72785;SDS011;60902;53.876;10.674;2022-09-06T00:42:29;3.77;;;1.20;;
72785;SDS011;60902;53.876;10.674;2022-09-06T00:42:41;3.20;;;1.10;;
72785;SDS011;60902;53.876;10.674;2022-09-06T00:42:52;3.10;;;1.02;;
72785;SDS011;60902;53.876;10.674;2022-09-06T00:43:03;2.92;;;0.93;;
72785;SDS011;60902;53.876;10.674;2022-09-06T00:43:14;2.67;;;0.90;;
72785;SDS011;60902;53.876;10.674;2022-09-06T00:43:24;2.85;;;0.90;;
72785;SDS011;60902;53.876;10.674;2022-09-06T00:43:37;2.80;;;0.95;;
72785;SDS011;60902;53.876;10.674;2022-09-06T00:43:50;2.60;;;0.93;;
72785;SDS011;60902;53.876;10.674;2022-09-06T00:44:01;2.83;;;1.05;;
72785;SDS011;60902;53.876;10.674;2022-09-06T00:44:12;2.72;;;1.00;;
72785;SDS011;60902;53.876;10.674;2022-09-06T00:44:23;2.38;;;1.08;;
72785;SDS011;60902;53.876;10.674;2022-09-06T00:44:34;2.22;;;0.90;;
72785;SDS011;60902;53.876;10.674;2022-09-06T00:44:45;2.63;;;1.00;;
72785;SDS011;60902;53.876;10.674;2022-09-06T00:44:57;2.58;;;0.88;;
72785;SDS011;60902;53.876;10.674;2022-09-06T00:45:09;2.65;;;0.90;;
72785;SDS011;60902;53.876;10.674;2022-09-06T00:45:22;2.65;;;0.85;;
72785;SDS011;60902;53.876;10.674;2022-09-06T00:45:35;2.38;;;1.00;;
72785;SDS011;60902;53.876;10.674;2022-09-06T00:45:45;2.50;;;1.20;;
72785;SDS011;60902;53.876;10.674;2022-09-06T00:45:56;2.50;;;1.02;;
72785;SDS011;60902;53.876;10.674;2022-09-06T00:46:09;2.80;;;0.98;;
72785;SDS011;60902;53.876;10.674;2022-09-06T00:46:25;2.78;;;0.82;;
72785;SDS011;60902;53.876;10.674;2022-09-06T00:46:38;2.88;;;0.90;;
72785;SDS011;60902;53.876;10.674;2022-09-06T00:46:53;3.05;;;1.10;;
72785;SDS011;60902;53.876;10.674;2022-09-06T00:47:05;2.78;;;1.00;;
72785;SDS011;60902;53.876;10.674;2022-09-06T00:47:17;2.60;;;0.90;;
72785;SDS011;60902;53.876;10.674;2022-09-06T00:47:30;3.15;;;0.90;;
72785;SDS011;60902;53.876;10.674;2022-09-06T00:47:42;3.35;;;1.10;;
72785;SDS011;60902;53.876;10.674;2022-09-06T00:47:53;3.15;;;1.13;;
72785;SDS011;60902;53.876;10.674;2022-09-06T00:48:05;2.80;;;1.00;;
72785;SDS011;60902;53.876;10.674;2022-09-06T00:48:17;2.80;;;0.93;;
72785;SDS011;60902;53.876;10.674;2022-09-06T00:48:28;3.03;;;0.98;;
72785;SDS011;60902;53.876;10.674;2022-09-06T00:48:39;2.85;;;1.00;;
72785;SDS011;60902;53.876;10.674;2022-09-06T00:48:53;2.65;;;0.90;;
72785;SDS011;60902;53.876;10.674;2022-09-06T00:49:09;2.60;;;0.82;;
72785;SDS011;60902;53.876;10.674;2022-09-06T00:49:23;2.80;;;0.95;;
72785;SDS011;60902;53.876;10.674;2022-09-06T00:49:38;2.58;;;0.82;;
72785;SDS011;60902;53.876;10.674;2022-09-06T00:49:53;2.58;;;0.85;;
72785;SDS011;60902;53.876;10.674;2022-09-06T00:50:08;2.35;;;0.82;;
72785;SDS011;60902;53.876;10.674;2022-09-06T00:50:22;2.80;;;1.00;;
72785;SDS011;60902;53.876;10.674;2022-09-06T00:50:33;2.97;;;1.10;;
72785;SDS011;60902;53.876;10.674;2022-09-06T00:50:44;2.85;;;1.13;;
72785;SDS011;60902;53.876;10.674;2022-09-06T00:50:57;2.63;;;1.00;;
72785;SDS011;60902;53.876;10.674;2022-09-06T00:51:12;3.25;;;0.90;;
72785;SDS011;60902;53.876;10.674;2022-09-06T00:51:25;3.13;;;0.90;;
72785;SDS011;60902;53.876;10.674;2022-09-06T00:51:38;2.75;;;0.98;;
72785;SDS011;60902;53.876;10.674;2022-09-06T00:51:50;3.45;;;0.90;;
72785;SDS011;60902;53.876;10.674;2022-09-06T00:52:03;3.50;;;0.93;;
72785;SDS011;60902;53.876;10.674;2022-09-06T00:52:18;2.92;;;1.02;;
72785;SDS011;60902;53.876;10.674;2022-09-06T00:52:30;2.67;;;0.90;;
72785;SDS011;60902;53.876;10.674;2022-09-06T00:52:44;2.55;;;0.90;;
72785;SDS011;60902;53.876;10.674;2022-09-06T00:52:57;2.78;;;0.88;;
72785;SDS011;60902;53.876;10.674;2022-09-06T00:53:08;2.65;;;0.90;;
72785;SDS011;60902;53.876;10.674;2022-09-06T00:53:19;2.55;;;1.00;;
72785;SDS011;60902;53.876;10.674;2022-09-06T00:53:32;2.42;;;0.90;;
72785;SDS011;60902;53.876;10.674;2022-09-06T00:53:43;2.55;;;0.90;;
72785;SDS011;60902;53.876;10.674;2022-09-06T00:53:54;2.30;;;0.80;;
72785;SDS011;60902;53.876;10.674;2022-09-06T00:54:06;2.60;;;1.00;;
72785;SDS011;60902;53.876;10.674;2022-09-06T00:54:19;3.03;;;1.00;;
72785;SDS011;60902;53.876;10.674;2022-09-06T00:54:30;3.03;;;0.90;;
72785;SDS011;60902;53.876;10.674;2022-09-06T00:54:41;2.90;;;0.95;;
72785;SDS011;60902;53.876;10.674;2022-09-06T00:54:53;3.08;;;1.00;;
72785;SDS011;60902;53.876;10.674;2022-09-06T00:55:04;2.90;;;1.00;;
72785;SDS011;60902;53.876;10.674;2022-09-06T00:55:16;2.60;;;0.95;;
72785;SDS011;60902;53.876;10.674;2022-09-06T00:55:29;2.70;;;0.82;;
72785;SDS011;60902;53.876;10.674;2022-09-06T00:55:40;2.67;;;0.80;;
72785;SDS011;60902;53.876;10.674;2022-09-06T00:55:52;2.90;;;0.93;;
72785;SDS011;60902;53.876;10.674;2022-09-06T00:56:04;3.17;;;1.40;;
72785;SDS011;60902;53.876;10.674;2022-09-06T00:56:15;2.92;;;1.30;;
72785;SDS011;60902;53.876;10.674;2022-09-06T00:56:26;2.65;;;1.20;;
72785;SDS011;60902;53.876;10.674;2022-09-06T00:56:40;2.45;;;0.80;;
72785;SDS011;60902;53.876;10.674;2022-09-06T00:56:52;2.65;;;0.90;;
72785;SDS011;60902;53.876;10.674;2022-09-06T00:57:05;2.75;;;1.00;;
72785;SDS011;60902;53.876;10.674;2022-09-06T00:57:17;3.03;;;1.00;;
72785;SDS011;60902;53.876;10.674;2022-09-06T00:57:28;3.10;;;0.90;;
72785;SDS011;60902;53.876;10.674;2022-09-06T00:57:41;2.33;;;0.80;;
72785;SDS011;60902;53.876;10.674;2022-09-06T00:57:52;2.33;;;0.70;;
72785;SDS011;60902;53.876;10.674;2022-09-06T00:58:04;2.78;;;0.80;;
72785;SDS011;60902;53.876;10.674;2022-09-06T00:58:16;3.03;;;0.90;;
72785;SDS011;60902;53.876;10.674;2022-09-06T00:58:27;3.05;;;1.00;;
72785;SDS011;60902;53.876;10.674;2022-09-06T00:58:38;2.53;;;1.00;;
72785;SDS011;60902;53.876;10.674;2022-09-06T00:58:50;2.60;;;0.90;;
72785;SDS011;60902;53.876;10.674;2022-09-06T00:59:01;2.85;;;0.95;;
72785;SDS011;60902;53.876;10.674;2022-09-06T00:59:12;3.00;;;1.00;;
72785;SDS011;60902;53.876;10.674;2022-09-06T00:59:24;3.15;;;1.00;;
72785;SDS011;60902;53.876;10.674;2022-09-06T00:59:36;2.95;;;1.00;;
72785;SDS011;60902;53.876;10.674;2022-09-06T00:59:49;2.65;;;0.90;;
72785;SDS011;60902;53.876;10.674;2022-09-06T01:00:00;2.40;;;0.90;;
72785;SDS011;60902;53.876;10.674;2022-09-06T01:00:13;2.40;;;0.90;;
72785;SDS011;60902;53.876;10.674;2022-09-06T01:00:29;2.70;;;1.08;;
72785;SDS011;60902;53.876;10.674;2022-09-06T01:00:41;2.97;;;1.10;;
72785;SDS011;60902;53.876;10.674;2022-09-06T01:00:55;2.90;;;0.90;;
72785;SDS011;60902;53.876;10.674;2022-09-06T01:01:06;2.80;;;0.90;;
72785;SDS011;60902;53.876;10.674;2022-09-06T01:01:17;2.78;;;1.00;;
72785;SDS011;60902;53.876;10.674;2022-09-06T01:01:28;2.70;;;0.90;;
72785;SDS011;60902;53.876;10.674;2022-09-06T01:01:39;2.65;;;0.85;;
72785;SDS011;60902;53.876;10.674;2022-09-06T01:01:51;2.55;;;0.80;;
72785;SDS011;60902;53.876;10.674;2022-09-06T01:02:03;2.55;;;0.82;;
72785;SDS011;60902;53.876;10.674;2022-09-06T01:02:14;2.78;;;0.88;;
72785;SDS011;60902;53.876;10.674;2022-09-06T01:02:27;3.25;;;1.05;;
72785;SDS011;60902;53.876;10.674;2022-09-06T01:02:38;3.92;;;1.23;;
72785;SDS011;60902;53.876;10.674;2022-09-06T01:02:49;4.00;;;1.15;;
72785;SDS011;60902;53.876;10.674;2022-09-06T01:03:00;3.60;;;0.90;;
72785;SDS011;60902;53.876;10.674;2022-09-06T01:03:11;3.15;;;0.90;;
72785;SDS011;60902;53.876;10.674;2022-09-06T01:03:24;2.60;;;1.00;;
72785;SDS011;60902;53.876;10.674;2022-09-06T01:03:35;2.20;;;0.85;;
72785;SDS011;60902;53.876;10.674;2022-09-06T01:03:47;2.58;;;0.85;;
72785;SDS011;60902;53.876;10.674;2022-09-06T01:03:58;2.70;;;0.93;;
72785;SDS011;60902;53.876;10.674;2022-09-06T01:04:10;2.88;;;1.00;;
72785;SDS011;60902;53.876;10.674;2022-09-06T01:04:22;2.78;;;0.95;;
72785;SDS011;60902;53.876;10.674;2022-09-06T01:04:33;3.17;;;0.90;;
72785;SDS011;60902;53.876;10.674;2022-09-06T01:04:47;3.38;;;0.90;;
72785;SDS011;60902;53.876;10.674;2022-09-06T01:05:00;2.75;;;1.00;;
72785;SDS011;60902;53.876;10.674;2022-09-06T01:05:14;2.38;;;1.00;;
72785;SDS011;60902;53.876;10.674;2022-09-06T01:05:27;2.38;;;0.98;;
72785;SDS011;60902;53.876;10.674;2022-09-06T01:05:48;2.45;;;0.90;;
72785;SDS011;60902;53.876;10.674;2022-09-06T01:06:16;2.78;;;1.00;;
72785;SDS011;60902;53.876;10.674;2022-09-06T01:06:36;2.88;;;0.80;;
72785;SDS011;60902;53.876;10.674;2022-09-06T01:07:00;2.90;;;0.90;;
72785;SDS011;60902;53.876;10.674;2022-09-06T01:07:17;3.33;;;1.30;;
72785;SDS011;60902;53.876;10.674;2022-09-06T01:07:40;3.17;;;1.30;;
72785;SDS011;60902;53.876;10.674;2022-09-06T01:08:06;2.92;;;0.90;;
72785;SDS011;60902;53.876;10.674;2022-09-06T01:08:27;2.90;;;0.90;;
72785;SDS011;60902;53.876;10.674;2022-09-06T01:08:51;2.85;;;1.10;;
72785;SDS011;60902;53.876;10.674;2022-09-06T01:09:14;3.17;;;1.10;;
72785;SDS011;60902;53.876;10.674;2022-09-06T01:09:38;3.30;;;1.00;;
72785;SDS011;60902;53.876;10.674;2022-09-06T01:10:03;2.50;;;0.90;;
72785;SDS011;60902;53.876;10.674;2022-09-06T01:10:40;3.08;;;0.93;;
72785;SDS011;60902;53.876;10.674;2022-09-06T01:11:11;2.70;;;0.90;;
72785;SDS011;60902;53.876;10.674;2022-09-06T01:11:37;2.13;;;0.80;;
72785;SDS011;60902;53.876;10.674;2022-09-06T01:11:59;2.45;;;0.85;;
72785;SDS011;60902;53.876;10.674;2022-09-06T01:12:23;3.25;;;0.90;;
72785;SDS011;60902;53.876;10.674;2022-09-06T01:12:43;3.03;;;1.05;;
72785;SDS011;60902;53.876;10.674;2022-09-06T01:13:13;2.92;;;0.95;;
72785;SDS011;60902;53.876;10.674;2022-09-06T01:13:38;3.35;;;1.10;;
72785;SDS011;60902;53.876;10.674;2022-09-06T01:13:59;3.03;;;1.00;;
72785;SDS011;60902;53.876;10.674;2022-09-06T01:14:20;2.85;;;1.00;;
72785;SDS011;60902;53.876;10.674;2022-09-06T01:14:43;3.22;;;1.00;;
72785;SDS011;60902;53.876;10.674;2022-09-06T01:15:07;2.80;;;1.10;;
72785;SDS011;60902;53.876;10.674;2022-09-06T01:15:32;2.47;;;0.85;;
72785;SDS011;60902;53.876;10.674;2022-09-06T01:15:53;2.58;;;0.80;;